DLH980 EDDF-EIDW
Flight info
| Callsign | DLH980 |
|---|---|
| Flight time | 1h 34m |
| Altitude | 36000 |
| Route | OBOKA3W/25C OBOKA Z28 DIBIR DCT BUDIP DCT RAVLO Y70 OTBED L60 PENIL UL28 LELDO M145 BAGSO BAGSO4L |
| Aircraft | A321/M-SDE2E3FGILORWXYZ/H |
Departure
| Time | 2026-05-05 14:29 |
|---|---|
| Airport | Frankfurt Main Airport (EDDF) |
Arrival
| Time | 2026-05-05 16:03 |
|---|---|
| Airport | Dublin Airport (EIDW) |
| Time | Latitude | Longitude | Altitude | Speed | Heading |
|---|---|---|---|---|---|
| 2026-05-05 14:03 | 50.04813 | 8.57186 | 362 ft | 0 kts | 115° |
| 2026-05-05 14:16 | 50.04816 | 8.57176 | 356 ft | 4 kts | 114° |
| 2026-05-05 14:16 | 50.04827 | 8.57138 | 360 ft | 4 kts | 116° |
| 2026-05-05 14:17 | 50.04837 | 8.57108 | 358 ft | 4 kts | 120° |
| 2026-05-05 14:17 | 50.04853 | 8.57078 | 359 ft | 4 kts | 155° |
| 2026-05-05 14:17 | 50.04844 | 8.57076 | 358 ft | 4 kts | 189° |
| 2026-05-05 14:17 | 50.04821 | 8.57056 | 361 ft | 4 kts | 212° |
| 2026-05-05 14:18 | 50.04798 | 8.57037 | 359 ft | 3 kts | 205° |
| 2026-05-05 14:18 | 50.04794 | 8.57035 | 358 ft | 0 kts | 205° |
| 2026-05-05 14:22 | 50.04789 | 8.57031 | 357 ft | 2 kts | 205° |
| 2026-05-05 14:22 | 50.04780 | 8.57024 | 364 ft | 3 kts | 204° |
| 2026-05-05 14:22 | 50.04748 | 8.57002 | 357 ft | 7 kts | 204° |
| 2026-05-05 14:22 | 50.04696 | 8.56965 | 361 ft | 8 kts | 204° |
| 2026-05-05 14:23 | 50.04654 | 8.56935 | 363 ft | 6 kts | 204° |
| 2026-05-05 14:23 | 50.04617 | 8.56913 | 357 ft | 7 kts | 194° |
| 2026-05-05 14:23 | 50.04560 | 8.56893 | 361 ft | 8 kts | 193° |
| 2026-05-05 14:23 | 50.04495 | 8.56871 | 359 ft | 11 kts | 193° |
| 2026-05-05 14:24 | 50.04409 | 8.56844 | 363 ft | 13 kts | 187° |
| 2026-05-05 14:24 | 50.04330 | 8.56822 | 360 ft | 11 kts | 192° |
| 2026-05-05 14:24 | 50.04274 | 8.56859 | 360 ft | 9 kts | 111° |
| 2026-05-05 14:24 | 50.04288 | 8.56955 | 361 ft | 10 kts | 70° |
| 2026-05-05 14:25 | 50.04312 | 8.57054 | 365 ft | 9 kts | 69° |
| 2026-05-05 14:25 | 50.04335 | 8.57147 | 361 ft | 9 kts | 69° |
| 2026-05-05 14:25 | 50.04360 | 8.57254 | 363 ft | 13 kts | 70° |
| 2026-05-05 14:25 | 50.04397 | 8.57412 | 361 ft | 18 kts | 70° |
| 2026-05-05 14:26 | 50.04440 | 8.57589 | 365 ft | 17 kts | 69° |
| 2026-05-05 14:26 | 50.04481 | 8.57757 | 368 ft | 16 kts | 69° |
| 2026-05-05 14:26 | 50.04520 | 8.57922 | 367 ft | 16 kts | 70° |
| 2026-05-05 14:26 | 50.04536 | 8.58063 | 366 ft | 9 kts | 130° |
| 2026-05-05 14:27 | 50.04487 | 8.58087 | 366 ft | 7 kts | 164° |
| 2026-05-05 14:27 | 50.04438 | 8.58115 | 369 ft | 7 kts | 158° |
| 2026-05-05 14:27 | 50.04400 | 8.58138 | 368 ft | 6 kts | 158° |
| 2026-05-05 14:27 | 50.04377 | 8.58123 | 369 ft | 4 kts | 250° |
| 2026-05-05 14:28 | 50.04376 | 8.58118 | 368 ft | 0 kts | 250° |
| 2026-05-05 14:28 | 50.04374 | 8.58111 | 371 ft | 4 kts | 250° |
| 2026-05-05 14:28 | 50.04295 | 8.57788 | 366 ft | 68 kts | 249° |
| 2026-05-05 14:28 | 50.04051 | 8.56768 | 360 ft | 131 kts | 249° |
| 2026-05-05 14:29 | 50.03674 | 8.55189 | 469 ft | 169 kts | 249° |
| 2026-05-05 14:29 | 50.03285 | 8.53534 | 1327 ft | 161 kts | 249° |
| 2026-05-05 14:29 | 50.02887 | 8.51839 | 1838 ft | 177 kts | 249° |
| 2026-05-05 14:29 | 50.02304 | 8.50040 | 2163 ft | 196 kts | 231° |
| 2026-05-05 14:30 | 50.01259 | 8.48646 | 2724 ft | 201 kts | 210° |
| 2026-05-05 14:30 | 49.99925 | 8.47973 | 3271 ft | 205 kts | 189° |
| 2026-05-05 14:30 | 49.98513 | 8.47651 | 3901 ft | 205 kts | 189° |
| 2026-05-05 14:30 | 49.97105 | 8.47333 | 4526 ft | 205 kts | 189° |
| 2026-05-05 14:31 | 49.95695 | 8.46914 | 5077 ft | 209 kts | 197° |
| 2026-05-05 14:31 | 49.94236 | 8.46237 | 5300 ft | 230 kts | 197° |
| 2026-05-05 14:31 | 49.92674 | 8.45407 | 5788 ft | 241 kts | 206° |
| 2026-05-05 14:31 | 49.91289 | 8.43938 | 6483 ft | 244 kts | 223° |
| 2026-05-05 14:32 | 49.90240 | 8.41844 | 7151 ft | 249 kts | 238° |
| 2026-05-05 14:32 | 49.89353 | 8.39526 | 7838 ft | 252 kts | 240° |
| 2026-05-05 14:32 | 49.88742 | 8.36962 | 8507 ft | 257 kts | 257° |
| 2026-05-05 14:32 | 49.88635 | 8.34090 | 8856 ft | 278 kts | 273° |
| 2026-05-05 14:33 | 49.88809 | 8.31052 | 9400 ft | 286 kts | 272° |
| 2026-05-05 14:33 | 49.89083 | 8.27973 | 10012 ft | 292 kts | 283° |
| 2026-05-05 14:33 | 49.89843 | 8.25033 | 10609 ft | 298 kts | 298° |
| 2026-05-05 14:33 | 49.91087 | 8.22426 | 11214 ft | 304 kts | 314° |
| 2026-05-05 14:34 | 49.92766 | 8.20415 | 11866 ft | 307 kts | 325° |
| 2026-05-05 14:34 | 49.94546 | 8.18553 | 12519 ft | 310 kts | 325° |
| 2026-05-05 14:34 | 49.96348 | 8.16679 | 13139 ft | 313 kts | 325° |
| 2026-05-05 14:34 | 49.98172 | 8.14788 | 13753 ft | 317 kts | 325° |
| 2026-05-05 14:35 | 50.00012 | 8.12876 | 14306 ft | 320 kts | 325° |
| 2026-05-05 14:35 | 50.01870 | 8.10944 | 14850 ft | 323 kts | 325° |
| 2026-05-05 14:35 | 50.03743 | 8.08992 | 15427 ft | 326 kts | 325° |
| 2026-05-05 14:35 | 50.05635 | 8.07018 | 15956 ft | 329 kts | 325° |
| 2026-05-05 14:36 | 50.07541 | 8.05027 | 16484 ft | 331 kts | 325° |
| 2026-05-05 14:36 | 50.09461 | 8.03016 | 16984 ft | 334 kts | 325° |
| 2026-05-05 14:36 | 50.11396 | 8.00985 | 17492 ft | 336 kts | 325° |
| 2026-05-05 14:36 | 50.13344 | 7.98938 | 17999 ft | 339 kts | 325° |
| 2026-05-05 14:37 | 50.15308 | 7.96876 | 18429 ft | 342 kts | 324° |
| 2026-05-05 14:37 | 50.17290 | 7.94794 | 18877 ft | 345 kts | 324° |
| 2026-05-05 14:37 | 50.19289 | 7.92694 | 19320 ft | 347 kts | 324° |
| 2026-05-05 14:37 | 50.21302 | 7.90579 | 19759 ft | 350 kts | 324° |
| 2026-05-05 14:38 | 50.23330 | 7.88446 | 20180 ft | 353 kts | 324° |
| 2026-05-05 14:38 | 50.25346 | 7.86320 | 20576 ft | 357 kts | 324° |
| 2026-05-05 14:38 | 50.27471 | 7.84074 | 20698 ft | 370 kts | 324° |
| 2026-05-05 14:38 | 50.29609 | 7.81812 | 20844 ft | 382 kts | 324° |
| 2026-05-05 14:39 | 50.31870 | 7.79420 | 20980 ft | 393 kts | 324° |
| 2026-05-05 14:39 | 50.34168 | 7.76985 | 21110 ft | 404 kts | 324° |
| 2026-05-05 14:39 | 50.36520 | 7.74488 | 21341 ft | 411 kts | 324° |
| 2026-05-05 14:39 | 50.38896 | 7.71966 | 21694 ft | 414 kts | 324° |
| 2026-05-05 14:40 | 50.41293 | 7.69423 | 22072 ft | 417 kts | 324° |
| 2026-05-05 14:40 | 50.43667 | 7.66900 | 22449 ft | 419 kts | 324° |
| 2026-05-05 14:40 | 50.46090 | 7.64315 | 22834 ft | 422 kts | 324° |
| 2026-05-05 14:40 | 50.48524 | 7.61717 | 23199 ft | 425 kts | 324° |
| 2026-05-05 14:41 | 50.51005 | 7.59068 | 23539 ft | 427 kts | 324° |
| 2026-05-05 14:41 | 50.53468 | 7.56434 | 23859 ft | 429 kts | 324° |
| 2026-05-05 14:41 | 50.55945 | 7.53784 | 24182 ft | 432 kts | 324° |
| 2026-05-05 14:41 | 50.58434 | 7.51119 | 24496 ft | 434 kts | 324° |
| 2026-05-05 14:42 | 50.60899 | 7.48478 | 24804 ft | 436 kts | 324° |
| 2026-05-05 14:42 | 50.63409 | 7.45778 | 25134 ft | 438 kts | 324° |
| 2026-05-05 14:42 | 50.65928 | 7.43062 | 25474 ft | 440 kts | 323° |
| 2026-05-05 14:42 | 50.68456 | 7.40333 | 25806 ft | 441 kts | 323° |
| 2026-05-05 14:43 | 50.70992 | 7.37593 | 26132 ft | 443 kts | 323° |
| 2026-05-05 14:43 | 50.73448 | 7.34664 | 26433 ft | 442 kts | 316° |
| 2026-05-05 14:43 | 50.75594 | 7.31191 | 26741 ft | 441 kts | 306° |
| 2026-05-05 14:43 | 50.77410 | 7.27298 | 27036 ft | 441 kts | 302° |
| 2026-05-05 14:44 | 50.79176 | 7.23325 | 27331 ft | 443 kts | 302° |
| 2026-05-05 14:44 | 50.80955 | 7.19337 | 27627 ft | 445 kts | 302° |
| 2026-05-05 14:44 | 50.82741 | 7.15332 | 27935 ft | 446 kts | 302° |
| 2026-05-05 14:44 | 50.84533 | 7.11309 | 28250 ft | 448 kts | 302° |
| 2026-05-05 14:45 | 50.86329 | 7.07270 | 28542 ft | 450 kts | 302° |
| 2026-05-05 14:45 | 50.88132 | 7.03207 | 28844 ft | 452 kts | 302° |
| 2026-05-05 14:45 | 50.89941 | 6.99127 | 29135 ft | 453 kts | 302° |
| 2026-05-05 14:45 | 50.91754 | 6.95028 | 29429 ft | 455 kts | 302° |
| 2026-05-05 14:46 | 50.93568 | 6.90918 | 29706 ft | 457 kts | 302° |
| 2026-05-05 14:46 | 50.95389 | 6.86783 | 29980 ft | 458 kts | 302° |
| 2026-05-05 14:46 | 50.97219 | 6.82625 | 30197 ft | 460 kts | 302° |
| 2026-05-05 14:46 | 50.99056 | 6.78457 | 30409 ft | 462 kts | 302° |
| 2026-05-05 14:47 | 51.00898 | 6.74269 | 30612 ft | 464 kts | 301° |
| 2026-05-05 14:47 | 51.02748 | 6.70055 | 30806 ft | 465 kts | 301° |
| 2026-05-05 14:47 | 51.04598 | 6.65833 | 31014 ft | 465 kts | 301° |
| 2026-05-05 14:47 | 51.06444 | 6.61611 | 31313 ft | 465 kts | 301° |
| 2026-05-05 14:48 | 51.08285 | 6.57397 | 31635 ft | 463 kts | 301° |
| 2026-05-05 14:48 | 51.10117 | 6.53199 | 31925 ft | 462 kts | 300° |
| 2026-05-05 14:48 | 51.11947 | 6.48999 | 32194 ft | 461 kts | 300° |
| 2026-05-05 14:48 | 51.13768 | 6.44804 | 32455 ft | 461 kts | 300° |
| 2026-05-05 14:49 | 51.15587 | 6.40602 | 32707 ft | 461 kts | 300° |
| 2026-05-05 14:49 | 51.17402 | 6.36401 | 33019 ft | 459 kts | 300° |
| 2026-05-05 14:49 | 51.19202 | 6.32228 | 33386 ft | 455 kts | 300° |
| 2026-05-05 14:49 | 51.20992 | 6.28077 | 33698 ft | 454 kts | 299° |
| 2026-05-05 14:50 | 51.22776 | 6.23930 | 33960 ft | 453 kts | 299° |
| 2026-05-05 14:50 | 51.24553 | 6.19787 | 34196 ft | 453 kts | 299° |
| 2026-05-05 14:50 | 51.26331 | 6.15638 | 34392 ft | 452 kts | 300° |
| 2026-05-05 14:50 | 51.28106 | 6.11494 | 34601 ft | 452 kts | 300° |
| 2026-05-05 14:51 | 51.29862 | 6.07325 | 34804 ft | 452 kts | 300° |
| 2026-05-05 14:51 | 51.31592 | 6.03130 | 35001 ft | 452 kts | 299° |
| 2026-05-05 14:51 | 51.33299 | 5.98924 | 35210 ft | 451 kts | 299° |
| 2026-05-05 14:51 | 51.34997 | 5.94702 | 35397 ft | 451 kts | 299° |
| 2026-05-05 14:52 | 51.36693 | 5.90481 | 35599 ft | 451 kts | 299° |
| 2026-05-05 14:52 | 51.38544 | 5.86417 | 35803 ft | 454 kts | 308° |
| 2026-05-05 14:52 | 51.42902 | 5.79064 | 35892 ft | 454 kts | 310° |
| 2026-05-05 14:53 | 51.47258 | 5.71756 | 35893 ft | 453 kts | 310° |
| 2026-05-05 14:53 | 51.51588 | 5.64428 | 35895 ft | 452 kts | 309° |
| 2026-05-05 14:54 | 51.55909 | 5.57078 | 35897 ft | 452 kts | 309° |
| 2026-05-05 14:54 | 51.60232 | 5.49715 | 35900 ft | 453 kts | 309° |
| 2026-05-05 14:55 | 51.64556 | 5.42346 | 35904 ft | 453 kts | 309° |
| 2026-05-05 14:55 | 51.68878 | 5.34948 | 35918 ft | 453 kts | 309° |
| 2026-05-05 14:56 | 51.73185 | 5.27540 | 35942 ft | 453 kts | 309° |
| 2026-05-05 14:56 | 51.77460 | 5.20171 | 35935 ft | 452 kts | 309° |
| 2026-05-05 14:57 | 51.81760 | 5.12754 | 35934 ft | 452 kts | 309° |
| 2026-05-05 14:57 | 51.86046 | 5.05322 | 35938 ft | 452 kts | 309° |
| 2026-05-05 14:58 | 51.90331 | 4.97877 | 35938 ft | 452 kts | 309° |
| 2026-05-05 14:58 | 51.94609 | 4.90420 | 35941 ft | 452 kts | 309° |
| 2026-05-05 14:59 | 51.98878 | 4.82957 | 35944 ft | 451 kts | 309° |
| 2026-05-05 14:59 | 52.03140 | 4.75489 | 35945 ft | 450 kts | 309° |
| 2026-05-05 15:00 | 52.06673 | 4.69280 | 35942 ft | 450 kts | 309° |
| 2026-05-05 15:00 | 52.11629 | 4.60525 | 35947 ft | 450 kts | 309° |
| 2026-05-05 15:01 | 52.15860 | 4.53030 | 35946 ft | 450 kts | 309° |
| 2026-05-05 15:01 | 52.20088 | 4.45525 | 35964 ft | 449 kts | 309° |
| 2026-05-05 15:02 | 52.24311 | 4.38010 | 35960 ft | 449 kts | 308° |
| 2026-05-05 15:02 | 52.28525 | 4.30489 | 35956 ft | 448 kts | 308° |
| 2026-05-05 15:03 | 52.32727 | 4.22965 | 35963 ft | 448 kts | 308° |
| 2026-05-05 15:03 | 52.36920 | 4.15422 | 35961 ft | 448 kts | 308° |
| 2026-05-05 15:04 | 52.40400 | 4.09148 | 35959 ft | 448 kts | 308° |
| 2026-05-05 15:04 | 52.44588 | 4.01590 | 35964 ft | 448 kts | 308° |
| 2026-05-05 15:05 | 52.51558 | 3.88954 | 35970 ft | 449 kts | 309° |
| 2026-05-05 15:06 | 52.55061 | 3.82575 | 35958 ft | 455 kts | 309° |
| 2026-05-05 15:06 | 52.59304 | 3.74818 | 35963 ft | 457 kts | 309° |
| 2026-05-05 15:07 | 52.63555 | 3.67036 | 35961 ft | 457 kts | 309° |
| 2026-05-05 15:07 | 52.67801 | 3.59235 | 35969 ft | 457 kts | 309° |
| 2026-05-05 15:08 | 52.72041 | 3.51419 | 36004 ft | 458 kts | 308° |
| 2026-05-05 15:08 | 52.76280 | 3.43582 | 36005 ft | 457 kts | 309° |
| 2026-05-05 15:09 | 52.80503 | 3.35752 | 36001 ft | 456 kts | 309° |
| 2026-05-05 15:09 | 52.84715 | 3.27911 | 35999 ft | 456 kts | 308° |
| 2026-05-05 15:10 | 52.88901 | 3.20041 | 36000 ft | 454 kts | 306° |
| 2026-05-05 15:10 | 52.92012 | 3.11099 | 36001 ft | 446 kts | 287° |
| 2026-05-05 15:11 | 52.93509 | 3.01192 | 36013 ft | 443 kts | 280° |
| 2026-05-05 15:11 | 52.94824 | 2.91204 | 36008 ft | 443 kts | 280° |
| 2026-05-05 15:12 | 52.96137 | 2.81217 | 36005 ft | 444 kts | 280° |
| 2026-05-05 15:12 | 52.97435 | 2.71213 | 36005 ft | 444 kts | 279° |
| 2026-05-05 15:13 | 52.98724 | 2.61199 | 36020 ft | 443 kts | 279° |
| 2026-05-05 15:13 | 53.00003 | 2.51193 | 36022 ft | 443 kts | 279° |
| 2026-05-05 15:14 | 53.01260 | 2.41241 | 36017 ft | 443 kts | 279° |
| 2026-05-05 15:14 | 53.02527 | 2.31147 | 36014 ft | 443 kts | 279° |
| 2026-05-05 15:15 | 53.03777 | 2.21188 | 36011 ft | 444 kts | 279° |
| 2026-05-05 15:15 | 53.05023 | 2.11145 | 36007 ft | 444 kts | 279° |
| 2026-05-05 15:16 | 53.06255 | 2.01101 | 36022 ft | 444 kts | 279° |
| 2026-05-05 15:16 | 53.07494 | 1.91045 | 36015 ft | 444 kts | 279° |
| 2026-05-05 15:17 | 53.09968 | 1.70680 | 36012 ft | 445 kts | 279° |
| 2026-05-05 15:18 | 53.11167 | 1.60584 | 36011 ft | 445 kts | 279° |
| 2026-05-05 15:18 | 53.12365 | 1.50476 | 36018 ft | 445 kts | 279° |
| 2026-05-05 15:19 | 53.13560 | 1.40362 | 36010 ft | 446 kts | 279° |
| 2026-05-05 15:19 | 53.14742 | 1.30226 | 36007 ft | 446 kts | 279° |
| 2026-05-05 15:20 | 53.15909 | 1.20145 | 36010 ft | 446 kts | 279° |
| 2026-05-05 15:20 | 53.17081 | 1.09987 | 36011 ft | 446 kts | 279° |
| 2026-05-05 15:21 | 53.18252 | 0.99754 | 36018 ft | 447 kts | 279° |
| 2026-05-05 15:21 | 53.19396 | 0.89638 | 36011 ft | 447 kts | 279° |
| 2026-05-05 15:22 | 53.20541 | 0.79435 | 36010 ft | 448 kts | 279° |
| 2026-05-05 15:22 | 53.21680 | 0.69219 | 36011 ft | 448 kts | 279° |
| 2026-05-05 15:23 | 53.22808 | 0.58986 | 36011 ft | 448 kts | 279° |
| 2026-05-05 15:23 | 53.23924 | 0.48747 | 36011 ft | 449 kts | 279° |
| 2026-05-05 15:24 | 53.25041 | 0.38489 | 36016 ft | 449 kts | 279° |
| 2026-05-05 15:24 | 53.26155 | 0.28219 | 36027 ft | 449 kts | 279° |
| 2026-05-05 15:25 | 53.27250 | 0.17947 | 36022 ft | 449 kts | 279° |
| 2026-05-05 15:25 | 53.28334 | 0.07654 | 36020 ft | 450 kts | 279° |
| 2026-05-05 15:26 | 53.29415 | -0.02643 | 36030 ft | 450 kts | 279° |
| 2026-05-05 15:26 | 53.30493 | -0.12940 | 36023 ft | 450 kts | 279° |
| 2026-05-05 15:27 | 53.31556 | -0.23268 | 36025 ft | 451 kts | 279° |
| 2026-05-05 15:27 | 53.32610 | -0.33602 | 36024 ft | 451 kts | 278° |
| 2026-05-05 15:28 | 53.33655 | -0.43940 | 36009 ft | 451 kts | 279° |
| 2026-05-05 15:28 | 53.34690 | -0.54296 | 36023 ft | 451 kts | 278° |
| 2026-05-05 15:29 | 53.35718 | -0.64647 | 36028 ft | 451 kts | 278° |
| 2026-05-05 15:29 | 53.36743 | -0.75001 | 36025 ft | 451 kts | 278° |
| 2026-05-05 15:30 | 53.37756 | -0.85368 | 36020 ft | 451 kts | 278° |
| 2026-05-05 15:30 | 53.38754 | -0.95732 | 36022 ft | 451 kts | 278° |
| 2026-05-05 15:31 | 53.39754 | -1.06100 | 36021 ft | 451 kts | 278° |
| 2026-05-05 15:31 | 53.40742 | -1.16481 | 36024 ft | 451 kts | 278° |
| 2026-05-05 15:32 | 53.41711 | -1.26857 | 36027 ft | 451 kts | 278° |
| 2026-05-05 15:32 | 53.42675 | -1.37241 | 36025 ft | 451 kts | 278° |
| 2026-05-05 15:33 | 53.43636 | -1.47618 | 36029 ft | 450 kts | 278° |
| 2026-05-05 15:33 | 53.44578 | -1.58006 | 36035 ft | 450 kts | 278° |
| 2026-05-05 15:34 | 53.45511 | -1.68322 | 36036 ft | 450 kts | 278° |
| 2026-05-05 15:34 | 53.46441 | -1.78712 | 36039 ft | 450 kts | 278° |
| 2026-05-05 15:35 | 53.47371 | -1.89160 | 36038 ft | 450 kts | 278° |
| 2026-05-05 15:35 | 53.48281 | -1.99558 | 36039 ft | 450 kts | 277° |
| 2026-05-05 15:36 | 53.49171 | -2.09892 | 36044 ft | 450 kts | 277° |
| 2026-05-05 15:36 | 53.50069 | -2.20362 | 36033 ft | 450 kts | 277° |
| 2026-05-05 15:37 | 53.50957 | -2.30762 | 36045 ft | 450 kts | 277° |
| 2026-05-05 15:37 | 53.51833 | -2.41178 | 36046 ft | 450 kts | 277° |
| 2026-05-05 15:38 | 53.52694 | -2.51522 | 36052 ft | 450 kts | 277° |
| 2026-05-05 15:38 | 53.53549 | -2.62009 | 36056 ft | 450 kts | 277° |
| 2026-05-05 15:39 | 53.54384 | -2.72345 | 36068 ft | 448 kts | 277° |
| 2026-05-05 15:39 | 53.55217 | -2.82722 | 36082 ft | 447 kts | 277° |
| 2026-05-05 15:40 | 53.56049 | -2.93157 | 36085 ft | 447 kts | 277° |
| 2026-05-05 15:40 | 53.56869 | -3.03501 | 36080 ft | 446 kts | 277° |
| 2026-05-05 15:41 | 53.57671 | -3.13786 | 36079 ft | 446 kts | 277° |
| 2026-05-05 15:41 | 53.58461 | -3.24148 | 36076 ft | 446 kts | 277° |
| 2026-05-05 15:42 | 53.59244 | -3.34515 | 36075 ft | 447 kts | 277° |
| 2026-05-05 15:42 | 53.60026 | -3.44893 | 36072 ft | 447 kts | 276° |
| 2026-05-05 15:43 | 53.60792 | -3.55276 | 36069 ft | 447 kts | 276° |
| 2026-05-05 15:43 | 53.61243 | -3.65685 | 35624 ft | 447 kts | 264° |
| 2026-05-05 15:43 | 53.60885 | -3.70895 | 34921 ft | 446 kts | 262° |
| 2026-05-05 15:44 | 53.60465 | -3.76044 | 34336 ft | 442 kts | 261° |
| 2026-05-05 15:44 | 53.60018 | -3.81133 | 33748 ft | 437 kts | 261° |
| 2026-05-05 15:44 | 53.59565 | -3.86169 | 33149 ft | 433 kts | 261° |
| 2026-05-05 15:44 | 53.59123 | -3.91145 | 32561 ft | 428 kts | 261° |
| 2026-05-05 15:45 | 53.58696 | -3.96079 | 32011 ft | 424 kts | 261° |
| 2026-05-05 15:45 | 53.58280 | -4.00971 | 31483 ft | 420 kts | 261° |
| 2026-05-05 15:45 | 53.58009 | -4.04181 | 31136 ft | 417 kts | 261° |
| 2026-05-05 15:45 | 53.57467 | -4.10606 | 30432 ft | 412 kts | 261° |
| 2026-05-05 15:46 | 53.57200 | -4.13759 | 30077 ft | 409 kts | 261° |
| 2026-05-05 15:46 | 53.56803 | -4.18439 | 29095 ft | 399 kts | 261° |
| 2026-05-05 15:46 | 53.56412 | -4.23008 | 27929 ft | 391 kts | 261° |
| 2026-05-05 15:46 | 53.56024 | -4.27487 | 26793 ft | 384 kts | 261° |
| 2026-05-05 15:47 | 53.55637 | -4.31889 | 25698 ft | 377 kts | 261° |
| 2026-05-05 15:47 | 53.55255 | -4.36223 | 24640 ft | 371 kts | 261° |
| 2026-05-05 15:47 | 53.54882 | -4.40484 | 23628 ft | 366 kts | 261° |
| 2026-05-05 15:47 | 53.54512 | -4.44688 | 22454 ft | 361 kts | 261° |
| 2026-05-05 15:48 | 53.54149 | -4.48823 | 21335 ft | 355 kts | 261° |
| 2026-05-05 15:48 | 53.53787 | -4.52900 | 20256 ft | 350 kts | 262° |
| 2026-05-05 15:48 | 53.53430 | -4.56920 | 19195 ft | 345 kts | 262° |
| 2026-05-05 15:48 | 53.53075 | -4.60885 | 18155 ft | 341 kts | 262° |
| 2026-05-05 15:49 | 53.52725 | -4.64795 | 17030 ft | 336 kts | 262° |
| 2026-05-05 15:49 | 53.52377 | -4.68643 | 16006 ft | 330 kts | 262° |
| 2026-05-05 15:49 | 53.52039 | -4.72334 | 15650 ft | 306 kts | 262° |
| 2026-05-05 15:49 | 53.51722 | -4.75765 | 15338 ft | 293 kts | 262° |
| 2026-05-05 15:50 | 53.51413 | -4.79121 | 14993 ft | 289 kts | 263° |
| 2026-05-05 15:50 | 53.51111 | -4.82437 | 14647 ft | 286 kts | 263° |
| 2026-05-05 15:50 | 53.50812 | -4.85720 | 14306 ft | 283 kts | 263° |
| 2026-05-05 15:50 | 53.50515 | -4.88975 | 13965 ft | 281 kts | 263° |
| 2026-05-05 15:51 | 53.50220 | -4.92211 | 13605 ft | 280 kts | 263° |
| 2026-05-05 15:51 | 53.49924 | -4.95436 | 13266 ft | 279 kts | 263° |
| 2026-05-05 15:51 | 53.49629 | -4.98657 | 12933 ft | 279 kts | 263° |
| 2026-05-05 15:51 | 53.49331 | -5.01872 | 12601 ft | 278 kts | 263° |
| 2026-05-05 15:52 | 53.49033 | -5.05063 | 12274 ft | 276 kts | 263° |
| 2026-05-05 15:52 | 53.48732 | -5.08244 | 11940 ft | 275 kts | 263° |
| 2026-05-05 15:52 | 53.48433 | -5.11409 | 11608 ft | 274 kts | 263° |
| 2026-05-05 15:52 | 53.48133 | -5.14562 | 11276 ft | 273 kts | 263° |
| 2026-05-05 15:53 | 53.47835 | -5.17694 | 10944 ft | 271 kts | 263° |
| 2026-05-05 15:53 | 53.47540 | -5.20800 | 10625 ft | 268 kts | 263° |
| 2026-05-05 15:53 | 53.47247 | -5.23872 | 10305 ft | 266 kts | 263° |
| 2026-05-05 15:53 | 53.46958 | -5.26928 | 10090 ft | 270 kts | 263° |
| 2026-05-05 15:54 | 53.46657 | -5.30127 | 10037 ft | 282 kts | 263° |
| 2026-05-05 15:54 | 53.46346 | -5.33398 | 9539 ft | 286 kts | 263° |
| 2026-05-05 15:54 | 53.46029 | -5.36689 | 9070 ft | 285 kts | 262° |
| 2026-05-05 15:54 | 53.45712 | -5.39966 | 8641 ft | 283 kts | 262° |
| 2026-05-05 15:55 | 53.45397 | -5.43212 | 8215 ft | 282 kts | 263° |
| 2026-05-05 15:55 | 53.45084 | -5.46437 | 7852 ft | 279 kts | 263° |
| 2026-05-05 15:55 | 53.44773 | -5.49632 | 7476 ft | 276 kts | 263° |
| 2026-05-05 15:55 | 53.44468 | -5.52793 | 7133 ft | 273 kts | 263° |
| 2026-05-05 15:56 | 53.44164 | -5.55916 | 6798 ft | 270 kts | 263° |
| 2026-05-05 15:56 | 53.43860 | -5.59002 | 6477 ft | 266 kts | 263° |
| 2026-05-05 15:56 | 53.43564 | -5.62009 | 6128 ft | 263 kts | 263° |
| 2026-05-05 15:56 | 53.43268 | -5.65014 | 5799 ft | 260 kts | 263° |
| 2026-05-05 15:57 | 53.42976 | -5.67978 | 5482 ft | 256 kts | 263° |
| 2026-05-05 15:57 | 53.42686 | -5.70907 | 5166 ft | 253 kts | 264° |
| 2026-05-05 15:57 | 53.42396 | -5.73799 | 4852 ft | 250 kts | 264° |
| 2026-05-05 15:57 | 53.42109 | -5.76654 | 4538 ft | 247 kts | 264° |
| 2026-05-05 15:58 | 53.41826 | -5.79470 | 4282 ft | 241 kts | 264° |
| 2026-05-05 15:58 | 53.41555 | -5.82159 | 4218 ft | 228 kts | 264° |
| 2026-05-05 15:58 | 53.41291 | -5.84751 | 4128 ft | 224 kts | 264° |
| 2026-05-05 15:58 | 53.41030 | -5.87329 | 4032 ft | 224 kts | 264° |
| 2026-05-05 15:59 | 53.40770 | -5.89910 | 3939 ft | 225 kts | 265° |
| 2026-05-05 15:59 | 53.40512 | -5.92486 | 3835 ft | 224 kts | 264° |
| 2026-05-05 15:59 | 53.40364 | -5.95070 | 3743 ft | 222 kts | 275° |
| 2026-05-05 15:59 | 53.40465 | -5.97637 | 3521 ft | 219 kts | 279° |
| 2026-05-05 16:00 | 53.40616 | -6.00171 | 3238 ft | 218 kts | 280° |
| 2026-05-05 16:00 | 53.40667 | -6.01028 | 3137 ft | 218 kts | 280° |
| 2026-05-05 16:00 | 53.41034 | -6.07442 | 2381 ft | 198 kts | 279° |
| 2026-05-05 16:01 | 53.41161 | -6.09675 | 2102 ft | 185 kts | 279° |
| 2026-05-05 16:01 | 53.41276 | -6.11720 | 1872 ft | 166 kts | 279° |
| 2026-05-05 16:01 | 53.41379 | -6.13552 | 1635 ft | 150 kts | 279° |
| 2026-05-05 16:01 | 53.41481 | -6.15248 | 1467 ft | 145 kts | 280° |
| 2026-05-05 16:02 | 53.41599 | -6.17284 | 1263 ft | 141 kts | 279° |
| 2026-05-05 16:02 | 53.41690 | -6.18932 | 1016 ft | 144 kts | 279° |
| 2026-05-05 16:02 | 53.41784 | -6.20661 | 811 ft | 150 kts | 277° |
| 2026-05-05 16:02 | 53.41877 | -6.22396 | 621 ft | 148 kts | 277° |
| 2026-05-05 16:03 | 53.41974 | -6.24121 | 389 ft | 149 kts | 276° |
| 2026-05-05 16:03 | 53.42066 | -6.25821 | 220 ft | 139 kts | 278° |
| 2026-05-05 16:03 | 53.42135 | -6.27046 | 220 ft | 63 kts | 275° |
| 2026-05-05 16:03 | 53.42162 | -6.27545 | 212 ft | 36 kts | 276° |
| 2026-05-05 16:04 | 53.42223 | -6.27911 | 217 ft | 27 kts | 298° |
| 2026-05-05 16:04 | 53.42268 | -6.28044 | 213 ft | 11 kts | 299° |
| 2026-05-05 16:04 | 53.42316 | -6.28130 | 211 ft | 8 kts | 338° |
| 2026-05-05 16:04 | 53.42363 | -6.28091 | 215 ft | 9 kts | 72° |
| 2026-05-05 16:05 | 53.42358 | -6.27974 | 211 ft | 11 kts | 95° |
| 2026-05-05 16:05 | 53.42351 | -6.27826 | 219 ft | 15 kts | 95° |
| 2026-05-05 16:05 | 53.42341 | -6.27635 | 211 ft | 18 kts | 95° |
| 2026-05-05 16:05 | 53.42328 | -6.27420 | 211 ft | 19 kts | 96° |
| 2026-05-05 16:06 | 53.42315 | -6.27186 | 211 ft | 21 kts | 95° |
| 2026-05-05 16:06 | 53.42302 | -6.26939 | 211 ft | 22 kts | 95° |
| 2026-05-05 16:06 | 53.42287 | -6.26677 | 211 ft | 23 kts | 95° |
| 2026-05-05 16:06 | 53.42272 | -6.26403 | 211 ft | 24 kts | 95° |
| 2026-05-05 16:07 | 53.42258 | -6.26117 | 211 ft | 25 kts | 94° |
| 2026-05-05 16:07 | 53.42323 | -6.25866 | 211 ft | 25 kts | 46° |
| 2026-05-05 16:07 | 53.42446 | -6.25655 | 215 ft | 25 kts | 44° |
| 2026-05-05 16:07 | 53.42555 | -6.25469 | 210 ft | 23 kts | 46° |
| 2026-05-05 16:08 | 53.42659 | -6.25292 | 213 ft | 18 kts | 45° |
| 2026-05-05 16:08 | 53.42722 | -6.25173 | 217 ft | 10 kts | 67° |
| 2026-05-05 16:08 | 53.42685 | -6.25095 | 213 ft | 10 kts | 159° |
| 2026-05-05 16:08 | 53.42613 | -6.25043 | 214 ft | 12 kts | 156° |
| 2026-05-05 16:09 | 53.42542 | -6.24976 | 211 ft | 8 kts | 115° |
| 2026-05-05 16:09 | 53.42565 | -6.24886 | 217 ft | 9 kts | 59° |
| 2026-05-05 16:09 | 53.42616 | -6.24809 | 215 ft | 9 kts | 47° |
| 2026-05-05 16:09 | 53.42623 | -6.24731 | 211 ft | 5 kts | 89° |
| 2026-05-05 16:10 | 53.42623 | -6.24701 | 211 ft | 1 kts | 90° |
| 2026-05-05 16:10 | 53.42623 | -6.24700 | 211 ft | 0 kts | 90° |